sensor_id;sensor_type;location;lat;lon;timestamp;P1;durP1;ratioP1;P2;durP2;ratioP2
29700;SDS011;57917;51.380;-0.176;2024-03-17T00:03:24;842.42;;;129.50;;
29700;SDS011;57917;51.380;-0.176;2024-03-17T00:09:23;844.58;;;131.10;;
29700;SDS011;57917;51.380;-0.176;2024-03-17T00:15:15;846.22;;;130.20;;
29700;SDS011;57917;51.380;-0.176;2024-03-17T00:21:01;853.67;;;135.27;;
29700;SDS011;57917;51.380;-0.176;2024-03-17T00:42:21;854.50;;;134.15;;
29700;SDS011;57917;51.380;-0.176;2024-03-17T00:48:19;854.45;;;132.18;;
29700;SDS011;57917;51.380;-0.176;2024-03-17T00:54:06;866.33;;;136.85;;
29700;SDS011;57917;51.380;-0.176;2024-03-17T00:59:55;878.88;;;139.35;;
29700;SDS011;57917;51.380;-0.176;2024-03-17T01:05:53;889.63;;;145.27;;
29700;SDS011;57917;51.380;-0.176;2024-03-17T01:11:58;884.90;;;145.68;;
29700;SDS011;57917;51.380;-0.176;2024-03-17T01:17:44;880.38;;;140.85;;
29700;SDS011;57917;51.380;-0.176;2024-03-17T01:23:32;876.53;;;142.10;;
29700;SDS011;57917;51.380;-0.176;2024-03-17T01:29:18;873.30;;;138.32;;
29700;SDS011;57917;51.380;-0.176;2024-03-17T01:35:04;871.20;;;139.02;;
29700;SDS011;57917;51.380;-0.176;2024-03-17T01:41:12;872.47;;;138.63;;
29700;SDS011;57917;51.380;-0.176;2024-03-17T01:47:02;884.15;;;142.30;;
29700;SDS011;57917;51.380;-0.176;2024-03-17T01:52:49;872.45;;;145.02;;
29700;SDS011;57917;51.380;-0.176;2024-03-17T01:58:38;881.13;;;144.55;;
29700;SDS011;57917;51.380;-0.176;2024-03-17T02:04:24;882.90;;;144.57;;
29700;SDS011;57917;51.380;-0.176;2024-03-17T02:10:13;885.53;;;144.52;;
29700;SDS011;57917;51.380;-0.176;2024-03-17T02:16:02;898.45;;;150.18;;
29700;SDS011;57917;51.380;-0.176;2024-03-17T02:21:49;887.35;;;145.00;;
29700;SDS011;57917;51.380;-0.176;2024-03-17T02:27:47;886.70;;;150.07;;
29700;SDS011;57917;51.380;-0.176;2024-03-17T02:33:33;884.63;;;151.77;;
29700;SDS011;57917;51.380;-0.176;2024-03-17T02:39:22;891.53;;;152.15;;
29700;SDS011;57917;51.380;-0.176;2024-03-17T02:45:20;883.85;;;150.80;;
29700;SDS011;57917;51.380;-0.176;2024-03-17T02:51:09;884.88;;;151.55;;
29700;SDS011;57917;51.380;-0.176;2024-03-17T02:56:56;879.75;;;152.88;;
29700;SDS011;57917;51.380;-0.176;2024-03-17T03:02:42;880.42;;;152.20;;
29700;SDS011;57917;51.380;-0.176;2024-03-17T03:08:31;888.20;;;157.98;;
29700;SDS011;57917;51.380;-0.176;2024-03-17T03:14:17;896.65;;;156.15;;
29700;SDS011;57917;51.380;-0.176;2024-03-17T03:20:04;883.63;;;156.52;;
29700;SDS011;57917;51.380;-0.176;2024-03-17T03:25:54;883.80;;;153.70;;
29700;SDS011;57917;51.380;-0.176;2024-03-17T03:31:45;891.92;;;155.55;;
29700;SDS011;57917;51.380;-0.176;2024-03-17T03:37:31;889.40;;;156.90;;
29700;SDS011;57917;51.380;-0.176;2024-03-17T03:43:18;886.33;;;154.20;;
29700;SDS011;57917;51.380;-0.176;2024-03-17T03:49:04;882.97;;;155.05;;
29700;SDS011;57917;51.380;-0.176;2024-03-17T03:54:53;893.25;;;161.30;;
29700;SDS011;57917;51.380;-0.176;2024-03-17T04:00:39;893.30;;;160.38;;
29700;SDS011;57917;51.380;-0.176;2024-03-17T04:06:25;889.00;;;155.77;;
29700;SDS011;57917;51.380;-0.176;2024-03-17T04:12:12;890.47;;;157.93;;
29700;SDS011;57917;51.380;-0.176;2024-03-17T04:17:58;891.45;;;162.63;;
29700;SDS011;57917;51.380;-0.176;2024-03-17T04:23:44;887.15;;;160.63;;
29700;SDS011;57917;51.380;-0.176;2024-03-17T04:29:30;892.63;;;162.43;;
29700;SDS011;57917;51.380;-0.176;2024-03-17T04:35:16;892.05;;;158.43;;
29700;SDS011;57917;51.380;-0.176;2024-03-17T04:41:02;890.13;;;156.70;;
29700;SDS011;57917;51.380;-0.176;2024-03-17T04:46:53;891.05;;;158.40;;
29700;SDS011;57917;51.380;-0.176;2024-03-17T04:52:39;894.75;;;160.25;;
29700;SDS011;57917;51.380;-0.176;2024-03-17T04:58:25;897.00;;;158.30;;
29700;SDS011;57917;51.380;-0.176;2024-03-17T05:04:11;900.22;;;160.30;;
29700;SDS011;57917;51.380;-0.176;2024-03-17T05:09:57;897.70;;;161.48;;
29700;SDS011;57917;51.380;-0.176;2024-03-17T05:15:46;900.38;;;164.10;;
29700;SDS011;57917;51.380;-0.176;2024-03-17T05:21:32;907.88;;;163.35;;
29700;SDS011;57917;51.380;-0.176;2024-03-17T05:27:21;900.10;;;164.07;;
29700;SDS011;57917;51.380;-0.176;2024-03-17T05:33:07;898.55;;;165.98;;
29700;SDS011;57917;51.380;-0.176;2024-03-17T05:38:53;904.90;;;164.13;;
29700;SDS011;57917;51.380;-0.176;2024-03-17T05:44:39;900.38;;;163.95;;
29700;SDS011;57917;51.380;-0.176;2024-03-17T05:50:35;906.80;;;163.23;;
29700;SDS011;57917;51.380;-0.176;2024-03-17T05:56:21;905.60;;;164.57;;
29700;SDS011;57917;51.380;-0.176;2024-03-17T06:02:08;897.90;;;161.50;;
29700;SDS011;57917;51.380;-0.176;2024-03-17T06:07:55;915.75;;;168.73;;
29700;SDS011;57917;51.380;-0.176;2024-03-17T06:13:41;905.92;;;165.43;;
29700;SDS011;57917;51.380;-0.176;2024-03-17T06:19:27;902.55;;;162.60;;
29700;SDS011;57917;51.380;-0.176;2024-03-17T06:25:13;907.30;;;165.45;;
29700;SDS011;57917;51.380;-0.176;2024-03-17T06:30:59;904.35;;;162.00;;
29700;SDS011;57917;51.380;-0.176;2024-03-17T06:36:47;905.05;;;161.82;;
29700;SDS011;57917;51.380;-0.176;2024-03-17T06:42:34;912.25;;;164.23;;
29700;SDS011;57917;51.380;-0.176;2024-03-17T06:48:20;906.22;;;162.63;;
29700;SDS011;57917;51.380;-0.176;2024-03-17T06:54:06;911.58;;;165.35;;
29700;SDS011;57917;51.380;-0.176;2024-03-17T06:59:54;906.92;;;164.10;;
29700;SDS011;57917;51.380;-0.176;2024-03-17T07:05:40;910.35;;;167.20;;
29700;SDS011;57917;51.380;-0.176;2024-03-17T07:11:28;900.30;;;156.85;;
29700;SDS011;57917;51.380;-0.176;2024-03-17T07:17:14;897.85;;;159.50;;
29700;SDS011;57917;51.380;-0.176;2024-03-17T07:23:00;899.30;;;159.75;;
29700;SDS011;57917;51.380;-0.176;2024-03-17T07:28:46;892.17;;;156.77;;
29700;SDS011;57917;51.380;-0.176;2024-03-17T07:34:32;899.17;;;163.52;;
29700;SDS011;57917;51.380;-0.176;2024-03-17T07:40:21;900.33;;;164.40;;
29700;SDS011;57917;51.380;-0.176;2024-03-17T07:46:08;901.03;;;164.65;;
29700;SDS011;57917;51.380;-0.176;2024-03-17T07:52:00;898.03;;;160.20;;
29700;SDS011;57917;51.380;-0.176;2024-03-17T07:57:48;899.60;;;160.48;;
29700;SDS011;57917;51.380;-0.176;2024-03-17T08:03:39;901.83;;;168.30;;
29700;SDS011;57917;51.380;-0.176;2024-03-17T08:09:26;901.47;;;163.52;;
29700;SDS011;57917;51.380;-0.176;2024-03-17T08:15:13;909.13;;;164.43;;
29700;SDS011;57917;51.380;-0.176;2024-03-17T08:21:00;894.17;;;164.85;;
29700;SDS011;57917;51.380;-0.176;2024-03-17T08:26:49;899.72;;;164.18;;
29700;SDS011;57917;51.380;-0.176;2024-03-17T08:32:35;901.97;;;168.25;;
29700;SDS011;57917;51.380;-0.176;2024-03-17T08:38:21;903.13;;;167.48;;
29700;SDS011;57917;51.380;-0.176;2024-03-17T08:44:08;903.58;;;168.60;;
29700;SDS011;57917;51.380;-0.176;2024-03-17T08:49:54;902.22;;;167.70;;
29700;SDS011;57917;51.380;-0.176;2024-03-17T08:55:43;897.97;;;166.07;;
29700;SDS011;57917;51.380;-0.176;2024-03-17T09:01:29;894.13;;;161.32;;
29700;SDS011;57917;51.380;-0.176;2024-03-17T09:07:17;894.90;;;163.40;;
29700;SDS011;57917;51.380;-0.176;2024-03-17T09:13:03;906.50;;;169.18;;
29700;SDS011;57917;51.380;-0.176;2024-03-17T09:18:49;902.53;;;168.00;;
29700;SDS011;57917;51.380;-0.176;2024-03-17T09:24:35;899.90;;;166.55;;
29700;SDS011;57917;51.380;-0.176;2024-03-17T09:30:26;899.38;;;164.18;;
29700;SDS011;57917;51.380;-0.176;2024-03-17T09:36:13;898.30;;;163.98;;
29700;SDS011;57917;51.380;-0.176;2024-03-17T09:41:59;903.13;;;168.60;;
29700;SDS011;57917;51.380;-0.176;2024-03-17T09:47:49;892.25;;;160.65;;
29700;SDS011;57917;51.380;-0.176;2024-03-17T09:53:37;899.00;;;164.18;;
29700;SDS011;57917;51.380;-0.176;2024-03-17T09:59:26;906.90;;;171.60;;
29700;SDS011;57917;51.380;-0.176;2024-03-17T10:05:19;903.88;;;175.95;;
29700;SDS011;57917;51.380;-0.176;2024-03-17T10:11:11;917.05;;;179.68;;
29700;SDS011;57917;51.380;-0.176;2024-03-17T10:17:04;911.03;;;182.02;;
29700;SDS011;57917;51.380;-0.176;2024-03-17T10:23:05;916.53;;;185.48;;
29700;SDS011;57917;51.380;-0.176;2024-03-17T10:28:53;916.03;;;183.23;;
29700;SDS011;57917;51.380;-0.176;2024-03-17T10:34:40;926.53;;;199.07;;
29700;SDS011;57917;51.380;-0.176;2024-03-17T10:40:26;928.78;;;203.57;;
29700;SDS011;57917;51.380;-0.176;2024-03-17T10:46:26;937.05;;;213.40;;
29700;SDS011;57917;51.380;-0.176;2024-03-17T10:52:16;938.75;;;218.55;;
29700;SDS011;57917;51.380;-0.176;2024-03-17T10:58:04;944.47;;;234.77;;
29700;SDS011;57917;51.380;-0.176;2024-03-17T11:03:58;935.15;;;223.07;;
29700;SDS011;57917;51.380;-0.176;2024-03-17T11:09:48;939.80;;;225.05;;
29700;SDS011;57917;51.380;-0.176;2024-03-17T11:15:36;944.05;;;229.88;;
29700;SDS011;57917;51.380;-0.176;2024-03-17T11:21:25;936.33;;;222.65;;
29700;SDS011;57917;51.380;-0.176;2024-03-17T11:39:21;936.67;;;219.88;;
29700;SDS011;57917;51.380;-0.176;2024-03-17T11:45:27;935.25;;;221.93;;
29700;SDS011;57917;51.380;-0.176;2024-03-17T11:51:13;938.30;;;218.43;;
29700;SDS011;57917;51.380;-0.176;2024-03-17T11:57:01;940.40;;;225.13;;
29700;SDS011;57917;51.380;-0.176;2024-03-17T12:02:48;936.42;;;220.35;;
29700;SDS011;57917;51.380;-0.176;2024-03-17T12:08:35;939.03;;;227.77;;
29700;SDS011;57917;51.380;-0.176;2024-03-17T12:14:21;938.35;;;227.05;;
29700;SDS011;57917;51.380;-0.176;2024-03-17T12:20:16;940.63;;;234.35;;
29700;SDS011;57917;51.380;-0.176;2024-03-17T12:26:03;951.25;;;244.68;;
29700;SDS011;57917;51.380;-0.176;2024-03-17T12:31:50;944.15;;;240.88;;
29700;SDS011;57917;51.380;-0.176;2024-03-17T12:37:37;951.75;;;248.82;;
29700;SDS011;57917;51.380;-0.176;2024-03-17T12:43:23;950.33;;;253.00;;
29700;SDS011;57917;51.380;-0.176;2024-03-17T12:49:09;951.55;;;251.05;;
29700;SDS011;57917;51.380;-0.176;2024-03-17T12:54:59;945.05;;;253.52;;
29700;SDS011;57917;51.380;-0.176;2024-03-17T13:01:06;950.63;;;251.65;;
29700;SDS011;57917;51.380;-0.176;2024-03-17T13:06:53;955.10;;;258.75;;
29700;SDS011;57917;51.380;-0.176;2024-03-17T13:12:40;949.17;;;258.27;;
29700;SDS011;57917;51.380;-0.176;2024-03-17T13:18:27;952.20;;;261.15;;
29700;SDS011;57917;51.380;-0.176;2024-03-17T13:24:13;964.40;;;276.10;;
29700;SDS011;57917;51.380;-0.176;2024-03-17T13:29:58;956.08;;;270.77;;
29700;SDS011;57917;51.380;-0.176;2024-03-17T13:35:44;958.80;;;271.05;;
29700;SDS011;57917;51.380;-0.176;2024-03-17T13:41:30;966.38;;;280.33;;
29700;SDS011;57917;51.380;-0.176;2024-03-17T13:47:16;963.70;;;285.08;;
29700;SDS011;57917;51.380;-0.176;2024-03-17T13:53:03;961.40;;;277.92;;
29700;SDS011;57917;51.380;-0.176;2024-03-17T13:58:51;967.05;;;274.75;;
29700;SDS011;57917;51.380;-0.176;2024-03-17T14:04:37;956.78;;;271.00;;
29700;SDS011;57917;51.380;-0.176;2024-03-17T14:10:23;945.97;;;258.20;;
29700;SDS011;57917;51.380;-0.176;2024-03-17T14:16:10;943.30;;;246.10;;
29700;SDS011;57917;51.380;-0.176;2024-03-17T14:21:56;939.55;;;243.35;;
29700;SDS011;57917;51.380;-0.176;2024-03-17T14:27:43;942.38;;;245.45;;
29700;SDS011;57917;51.380;-0.176;2024-03-17T14:33:31;944.55;;;251.60;;
29700;SDS011;57917;51.380;-0.176;2024-03-17T14:39:17;941.80;;;248.70;;
29700;SDS011;57917;51.380;-0.176;2024-03-17T14:45:03;940.85;;;252.10;;
29700;SDS011;57917;51.380;-0.176;2024-03-17T14:50:50;944.30;;;254.95;;
29700;SDS011;57917;51.380;-0.176;2024-03-17T14:56:36;950.30;;;260.30;;
29700;SDS011;57917;51.380;-0.176;2024-03-17T15:02:22;949.10;;;263.08;;
29700;SDS011;57917;51.380;-0.176;2024-03-17T15:08:09;951.38;;;264.05;;
29700;SDS011;57917;51.380;-0.176;2024-03-17T15:13:55;954.55;;;276.42;;
29700;SDS011;57917;51.380;-0.176;2024-03-17T15:19:41;948.08;;;276.83;;
29700;SDS011;57917;51.380;-0.176;2024-03-17T15:25:32;966.83;;;284.45;;
29700;SDS011;57917;51.380;-0.176;2024-03-17T15:31:18;962.58;;;290.35;;
29700;SDS011;57917;51.380;-0.176;2024-03-17T15:37:07;959.30;;;275.85;;
29700;SDS011;57917;51.380;-0.176;2024-03-17T15:42:53;964.15;;;281.80;;
29700;SDS011;57917;51.380;-0.176;2024-03-17T15:48:40;961.38;;;275.63;;
29700;SDS011;57917;51.380;-0.176;2024-03-17T15:54:27;957.00;;;270.45;;
29700;SDS011;57917;51.380;-0.176;2024-03-17T16:00:14;957.55;;;269.67;;
29700;SDS011;57917;51.380;-0.176;2024-03-17T16:06:02;957.00;;;269.80;;
29700;SDS011;57917;51.380;-0.176;2024-03-17T16:11:53;961.92;;;271.65;;
29700;SDS011;57917;51.380;-0.176;2024-03-17T16:17:39;964.67;;;274.80;;
29700;SDS011;57917;51.380;-0.176;2024-03-17T16:23:25;958.95;;;270.17;;
29700;SDS011;57917;51.380;-0.176;2024-03-17T16:29:14;951.17;;;262.98;;
29700;SDS011;57917;51.380;-0.176;2024-03-17T16:35:00;950.60;;;256.25;;
29700;SDS011;57917;51.380;-0.176;2024-03-17T16:40:46;950.88;;;255.13;;
29700;SDS011;57917;51.380;-0.176;2024-03-17T16:52:35;945.38;;;244.68;;
29700;SDS011;57917;51.380;-0.176;2024-03-17T16:58:22;945.10;;;245.63;;
29700;SDS011;57917;51.380;-0.176;2024-03-17T17:04:10;944.13;;;240.45;;
29700;SDS011;57917;51.380;-0.176;2024-03-17T17:09:56;941.83;;;233.60;;
29700;SDS011;57917;51.380;-0.176;2024-03-17T17:15:49;950.65;;;238.30;;
29700;SDS011;57917;51.380;-0.176;2024-03-17T17:21:35;943.83;;;231.10;;
29700;SDS011;57917;51.380;-0.176;2024-03-17T17:27:21;942.15;;;224.32;;
29700;SDS011;57917;51.380;-0.176;2024-03-17T17:33:08;949.47;;;225.98;;
29700;SDS011;57917;51.380;-0.176;2024-03-17T17:38:55;932.05;;;217.75;;
29700;SDS011;57917;51.380;-0.176;2024-03-17T17:44:41;935.70;;;216.57;;
29700;SDS011;57917;51.380;-0.176;2024-03-17T17:50:31;930.65;;;209.00;;
29700;SDS011;57917;51.380;-0.176;2024-03-17T17:56:17;930.63;;;210.13;;
29700;SDS011;57917;51.380;-0.176;2024-03-17T18:02:13;929.40;;;203.65;;
29700;SDS011;57917;51.380;-0.176;2024-03-17T18:07:59;932.45;;;200.15;;
29700;SDS011;57917;51.380;-0.176;2024-03-17T18:13:49;928.20;;;201.57;;
29700;SDS011;57917;51.380;-0.176;2024-03-17T18:19:35;922.97;;;196.30;;
29700;SDS011;57917;51.380;-0.176;2024-03-17T18:25:21;920.97;;;191.95;;
29700;SDS011;57917;51.380;-0.176;2024-03-17T18:31:08;920.05;;;195.30;;
29700;SDS011;57917;51.380;-0.176;2024-03-17T18:36:55;923.47;;;195.88;;
29700;SDS011;57917;51.380;-0.176;2024-03-17T18:42:41;942.22;;;199.10;;
29700;SDS011;57917;51.380;-0.176;2024-03-17T18:48:27;924.97;;;193.50;;
29700;SDS011;57917;51.380;-0.176;2024-03-17T18:54:13;918.72;;;189.57;;
29700;SDS011;57917;51.380;-0.176;2024-03-17T18:59:59;916.05;;;183.48;;
29700;SDS011;57917;51.380;-0.176;2024-03-17T19:05:46;932.10;;;194.98;;
29700;SDS011;57917;51.380;-0.176;2024-03-17T19:11:38;912.73;;;186.33;;
29700;SDS011;57917;51.380;-0.176;2024-03-17T19:17:24;917.13;;;180.73;;
29700;SDS011;57917;51.380;-0.176;2024-03-17T19:23:10;910.47;;;177.68;;
29700;SDS011;57917;51.380;-0.176;2024-03-17T19:28:56;911.83;;;180.30;;
29700;SDS011;57917;51.380;-0.176;2024-03-17T19:34:45;912.42;;;179.48;;
29700;SDS011;57917;51.380;-0.176;2024-03-17T19:40:34;913.00;;;180.48;;
29700;SDS011;57917;51.380;-0.176;2024-03-17T19:46:20;914.53;;;178.82;;
29700;SDS011;57917;51.380;-0.176;2024-03-17T19:52:09;921.38;;;174.48;;
29700;SDS011;57917;51.380;-0.176;2024-03-17T19:57:57;911.97;;;177.85;;
29700;SDS011;57917;51.380;-0.176;2024-03-17T20:03:47;912.10;;;174.73;;
29700;SDS011;57917;51.380;-0.176;2024-03-17T20:09:38;915.60;;;173.25;;
29700;SDS011;57917;51.380;-0.176;2024-03-17T20:15:35;908.08;;;175.20;;
29700;SDS011;57917;51.380;-0.176;2024-03-17T20:21:56;901.47;;;166.82;;
29700;SDS011;57917;51.380;-0.176;2024-03-17T20:34:17;902.58;;;168.60;;
29700;SDS011;57917;51.380;-0.176;2024-03-17T20:40:57;906.60;;;170.95;;
29700;SDS011;57917;51.380;-0.176;2024-03-17T20:46:46;904.72;;;164.70;;
29700;SDS011;57917;51.380;-0.176;2024-03-17T20:52:36;908.75;;;164.90;;
29700;SDS011;57917;51.380;-0.176;2024-03-17T20:58:23;903.78;;;167.38;;
29700;SDS011;57917;51.380;-0.176;2024-03-17T21:04:18;910.08;;;171.25;;
29700;SDS011;57917;51.380;-0.176;2024-03-17T21:10:55;910.17;;;170.13;;
29700;SDS011;57917;51.380;-0.176;2024-03-17T21:16:42;902.22;;;164.10;;
29700;SDS011;57917;51.380;-0.176;2024-03-17T21:22:29;897.85;;;163.77;;
29700;SDS011;57917;51.380;-0.176;2024-03-17T21:28:19;898.08;;;165.00;;
29700;SDS011;57917;51.380;-0.176;2024-03-17T21:34:15;902.85;;;163.88;;
29700;SDS011;57917;51.380;-0.176;2024-03-17T21:40:04;903.03;;;167.45;;
29700;SDS011;57917;51.380;-0.176;2024-03-17T21:46:18;894.65;;;163.55;;
29700;SDS011;57917;51.380;-0.176;2024-03-17T21:52:14;898.08;;;161.20;;
29700;SDS011;57917;51.380;-0.176;2024-03-17T22:04:20;883.00;;;162.45;;
29700;SDS011;57917;51.380;-0.176;2024-03-17T22:10:12;905.10;;;168.43;;
29700;SDS011;57917;51.380;-0.176;2024-03-17T22:16:14;902.05;;;167.07;;
29700;SDS011;57917;51.380;-0.176;2024-03-17T22:22:15;900.53;;;165.68;;
29700;SDS011;57917;51.380;-0.176;2024-03-17T22:28:22;900.72;;;164.00;;
29700;SDS011;57917;51.380;-0.176;2024-03-17T22:34:25;900.60;;;165.30;;
29700;SDS011;57917;51.380;-0.176;2024-03-17T22:40:15;899.97;;;159.90;;
29700;SDS011;57917;51.380;-0.176;2024-03-17T22:46:05;899.90;;;163.23;;
29700;SDS011;57917;51.380;-0.176;2024-03-17T22:52:16;895.03;;;159.32;;
29700;SDS011;57917;51.380;-0.176;2024-03-17T22:58:07;898.97;;;157.60;;
29700;SDS011;57917;51.380;-0.176;2024-03-17T23:04:16;903.53;;;166.93;;
29700;SDS011;57917;51.380;-0.176;2024-03-17T23:10:03;894.47;;;154.93;;
29700;SDS011;57917;51.380;-0.176;2024-03-17T23:15:49;894.95;;;159.93;;
29700;SDS011;57917;51.380;-0.176;2024-03-17T23:21:38;894.78;;;158.45;;
29700;SDS011;57917;51.380;-0.176;2024-03-17T23:27:27;894.67;;;160.50;;
29700;SDS011;57917;51.380;-0.176;2024-03-17T23:33:13;889.50;;;154.13;;
29700;SDS011;57917;51.380;-0.176;2024-03-17T23:39:03;893.67;;;156.23;;
29700;SDS011;57917;51.380;-0.176;2024-03-17T23:44:49;889.58;;;153.48;;
29700;SDS011;57917;51.380;-0.176;2024-03-17T23:50:38;898.72;;;159.30;;
29700;SDS011;57917;51.380;-0.176;2024-03-17T23:56:27;892.85;;;156.65;;
